< < Back
Terminal Aerodrome Forecast


Current Version              Previous Versions:   1  2  3  4  5  6  7  8  9  

Terminal Aerodrome Forecast

307
FTUS42 KFFC 241700
TAFATL
TAF
KATL 241731Z 2418/2524 27007KT P6SM FEW150 SCT250
     FM242000 31008KT P6SM FEW150
     FM250000 33005KT P6SM SKC
     FM251900 33008KT P6SM SKC=

Latest METAR

117
SAUS70 KWBC 250300 RRB
MTRATL
METAR KATL 250252Z 31005KT 10SM FEW250 14/06 A3004 RMK AO2 SLP170
T01440061 51005


USA.gov is the U.S. government's official web portal to all federal, state and local government web resources and services.